createdAt,value
2022-12-25T00:01:22.289Z,95359.22
2022-12-25T00:03:49.663Z,95357.94
2022-12-25T00:06:17.343Z,95354.59
2022-12-25T00:08:43.997Z,95350.94
2022-12-25T00:11:16.537Z,95345.38
2022-12-25T00:13:44.086Z,95337.44
2022-12-25T00:16:16.668Z,95343.50
2022-12-25T00:18:43.501Z,95339.50
2022-12-25T00:21:11.355Z,95334.75
2022-12-25T00:23:38.967Z,95333.91
2022-12-25T00:26:08.699Z,95336.66
2022-12-25T00:28:35.676Z,95342.69
2022-12-25T00:31:14.793Z,95335.59
2022-12-25T00:33:43.330Z,95336.31
2022-12-25T00:36:12.896Z,95331.19
2022-12-25T00:38:40.920Z,95330.13
2022-12-25T00:41:14.117Z,95331.66
2022-12-25T00:43:41.190Z,95338.44
2022-12-25T00:46:09.581Z,95324.44
2022-12-25T00:48:36.328Z,95321.78
2022-12-25T00:51:07.059Z,95316.16
2022-12-25T00:53:34.026Z,95317.31
2022-12-25T00:56:04.465Z,95315.41
2022-12-25T00:58:33.611Z,95325.31
2022-12-25T01:01:00.431Z,95314.84
2022-12-25T01:03:27.831Z,95321.00
2022-12-25T01:05:58.400Z,95316.50
2022-12-25T01:08:26.240Z,95319.41
2022-12-25T01:10:58.268Z,95317.56
2022-12-25T01:13:25.589Z,95321.47
2022-12-25T01:15:52.386Z,95314.22
2022-12-25T01:18:19.911Z,95316.75
2022-12-25T01:20:46.592Z,95310.53
2022-12-25T01:23:16.019Z,95312.97
2022-12-25T01:25:42.787Z,95319.72
2022-12-25T01:28:09.528Z,95322.28
2022-12-25T01:30:36.117Z,95328.88
2022-12-25T01:33:02.727Z,95324.50
2022-12-25T01:35:29.347Z,95324.47
2022-12-25T01:37:56.761Z,95325.38
2022-12-25T01:40:23.425Z,95318.00
2022-12-25T01:42:50.494Z,95324.72
2022-12-25T01:45:19.736Z,95326.19
2022-12-25T01:47:46.368Z,95322.91
2022-12-25T01:50:13.062Z,95310.91
2022-12-25T01:52:39.779Z,95319.31
2022-12-25T01:55:07.398Z,95311.16
2022-12-25T01:57:37.788Z,95308.72
2022-12-25T02:00:07.424Z,95314.28
2022-12-25T02:02:34.863Z,95312.78
2022-12-25T02:05:09.866Z,95309.22
2022-12-25T02:07:38.469Z,95318.72
2022-12-25T02:10:05.462Z,95315.28
2022-12-25T02:12:35.462Z,95313.47
2022-12-25T02:15:08.029Z,95316.78
2022-12-25T02:17:40.169Z,95318.88
2022-12-25T02:20:38.067Z,95318.88
2022-12-25T02:23:07.691Z,95323.22
2022-12-25T02:25:52.544Z,95308.09
2022-12-25T02:28:32.375Z,95308.56
2022-12-25T02:31:10.667Z,95304.06
2022-12-25T02:34:06.501Z,95298.88
2022-12-25T02:37:03.559Z,95302.97
2022-12-25T02:40:02.518Z,95300.63
2022-12-25T02:43:09.117Z,95296.38
2022-12-25T02:46:00.236Z,95296.81
2022-12-25T02:48:34.024Z,95286.50
2022-12-25T02:51:07.508Z,95290.16
2022-12-25T02:53:37.623Z,95283.50
2022-12-25T02:56:04.549Z,95280.25
2022-12-25T02:58:36.723Z,95280.00
2022-12-25T03:01:08.668Z,95283.75
2022-12-25T03:03:41.095Z,95276.81
2022-12-25T03:06:10.710Z,95276.84
2022-12-25T03:08:42.936Z,95287.06
2022-12-25T03:11:12.515Z,95280.97
2022-12-25T03:13:43.333Z,95283.34
2022-12-25T03:16:10.209Z,95280.75
2022-12-25T03:18:36.920Z,95279.38
2022-12-25T03:21:03.770Z,95278.03
2022-12-25T03:23:34.661Z,95272.75
2022-12-25T03:26:01.334Z,95267.53
2022-12-25T03:28:27.925Z,95274.47
2022-12-25T03:31:15.649Z,95264.22
2022-12-25T03:34:02.406Z,95256.34
2022-12-25T03:36:53.385Z,95252.06
2022-12-25T03:39:33.504Z,95242.81
2022-12-25T03:42:05.493Z,95242.44
2022-12-25T03:45:02.986Z,95239.59
2022-12-25T03:47:42.951Z,95236.59
2022-12-25T03:50:25.697Z,95239.94
2022-12-25T03:52:56.836Z,95235.03
2022-12-25T03:55:26.158Z,95234.81
2022-12-25T03:57:53.039Z,95230.41
2022-12-25T04:00:20.161Z,95223.75
2022-12-25T04:02:46.868Z,95230.47
2022-12-25T04:05:13.645Z,95226.78
2022-12-25T04:07:40.329Z,95223.31
2022-12-25T04:10:07.739Z,95228.38
2022-12-25T04:12:54.333Z,95232.81
2022-12-25T04:15:32.031Z,95229.28
2022-12-25T04:18:18.675Z,95223.69
2022-12-25T04:20:58.988Z,95227.47
2022-12-25T04:23:45.644Z,95225.28
2022-12-25T04:26:12.302Z,95230.91
2022-12-25T04:28:38.918Z,95231.19
2022-12-25T04:31:06.044Z,95235.75
2022-12-25T04:33:32.712Z,95239.47
2022-12-25T04:35:59.300Z,95229.19
2022-12-25T04:38:25.948Z,95236.75
2022-12-25T04:40:52.555Z,95226.44
2022-12-25T04:43:19.224Z,95224.44
2022-12-25T04:45:55.503Z,95224.56
2022-12-25T04:48:22.912Z,95229.72
2022-12-25T04:50:49.693Z,95226.78
2022-12-25T04:53:17.012Z,95220.41
2022-12-25T04:55:43.856Z,95215.41
2022-12-25T04:58:11.106Z,95223.03
2022-12-25T05:00:37.885Z,95215.72
2022-12-25T05:03:04.570Z,95210.06
2022-12-25T05:05:31.212Z,95206.34
2022-12-25T05:07:57.966Z,95205.50
2022-12-25T05:10:24.620Z,95197.19
2022-12-25T05:12:51.230Z,95195.31
2022-12-25T05:15:17.851Z,95203.88
2022-12-25T05:17:44.467Z,95201.78
2022-12-25T05:20:11.157Z,95204.63
2022-12-25T05:22:37.768Z,95212.03
2022-12-25T05:25:04.589Z,95202.31
2022-12-25T05:27:31.184Z,95201.53
2022-12-25T05:29:57.785Z,95206.09
2022-12-25T05:32:24.404Z,95202.00
2022-12-25T05:34:51.063Z,95206.00
2022-12-25T05:37:17.656Z,95212.75
2022-12-25T05:39:44.259Z,95207.13
2022-12-25T05:42:10.888Z,95207.13
2022-12-25T05:44:37.514Z,95200.97
2022-12-25T05:47:04.237Z,95199.34
2022-12-25T05:49:30.940Z,95203.09
2022-12-25T05:51:57.564Z,95204.91
2022-12-25T05:54:24.223Z,95203.81
2022-12-25T05:56:50.896Z,95208.38
2022-12-25T05:59:17.530Z,95220.66
2022-12-25T06:01:44.309Z,95216.50
2022-12-25T06:04:12.948Z,95224.25
2022-12-25T06:06:40.666Z,95225.22
2022-12-25T06:09:07.277Z,95220.59
2022-12-25T06:11:33.940Z,95222.59
2022-12-25T06:14:00.556Z,95216.84
2022-12-25T06:16:27.376Z,95217.47
2022-12-25T06:18:55.401Z,95224.88
2022-12-25T06:21:22.237Z,95220.06
2022-12-25T06:23:48.959Z,95230.16
2022-12-25T06:26:18.175Z,95228.56
2022-12-25T06:28:44.850Z,95230.09
2022-12-25T06:31:19.496Z,95235.03
2022-12-25T06:33:46.340Z,95241.03
2022-12-25T06:36:19.343Z,95238.47
2022-12-25T06:38:46.435Z,95238.97
2022-12-25T06:41:19.178Z,95241.44
2022-12-25T06:43:50.228Z,95242.03
2022-12-25T06:46:18.137Z,95241.09
2022-12-25T06:48:45.101Z,95241.13
2022-12-25T06:51:11.702Z,95239.56
2022-12-25T06:53:39.891Z,95231.66
2022-12-25T06:56:10.310Z,95237.25
2022-12-25T06:58:36.999Z,95234.59
2022-12-25T07:01:10.309Z,95229.31
2022-12-25T07:03:36.932Z,95236.72
2022-12-25T07:06:03.597Z,95232.00
2022-12-25T07:08:30.185Z,95226.72
2022-12-25T07:10:56.792Z,95236.47
2022-12-25T07:13:23.388Z,95235.59
2022-12-25T07:15:59.446Z,95239.53
2022-12-25T07:18:27.303Z,95244.06
2022-12-25T07:20:53.986Z,95237.09
2022-12-25T07:23:23.918Z,95237.75
2022-12-25T07:25:59.011Z,95242.41
2022-12-25T07:28:26.731Z,95239.94
2022-12-25T07:30:53.416Z,95241.44
2022-12-25T07:33:20.073Z,95248.72
2022-12-25T07:35:46.675Z,95253.47
2022-12-25T07:38:13.272Z,95263.50
2022-12-25T07:40:40.029Z,95262.69
2022-12-25T07:43:06.615Z,95258.72
2022-12-25T07:45:33.306Z,95253.53
2022-12-25T07:48:04.912Z,95256.44
2022-12-25T07:50:32.645Z,95266.84
2022-12-25T07:52:59.317Z,95276.03
2022-12-25T07:55:26.027Z,95284.31
2022-12-25T07:57:53.019Z,95278.94
2022-12-25T08:00:20.087Z,95279.94
2022-12-25T08:02:50.121Z,95280.66
2022-12-25T08:05:16.983Z,95276.31
2022-12-25T08:07:43.724Z,95282.06
2022-12-25T08:10:10.872Z,95282.22
2022-12-25T08:12:37.574Z,95288.94
2022-12-25T08:15:04.594Z,95285.44
2022-12-25T08:17:31.190Z,95288.63
2022-12-25T08:19:57.837Z,95301.78
2022-12-25T08:22:24.545Z,95301.13
2022-12-25T08:24:51.208Z,95288.88
2022-12-25T08:27:19.853Z,95291.88
2022-12-25T08:29:46.445Z,95288.13
2022-12-25T08:32:13.064Z,95298.28
2022-12-25T08:34:39.680Z,95296.78
2022-12-25T08:37:06.333Z,95307.88
2022-12-25T08:39:32.965Z,95304.50
2022-12-25T08:41:59.584Z,95311.53
2022-12-25T08:44:27.280Z,95318.59
2022-12-25T08:46:55.944Z,95312.03
2022-12-25T08:49:22.596Z,95306.13
2022-12-25T08:51:49.392Z,95305.66
2022-12-25T08:54:16.041Z,95301.25
2022-12-25T08:56:42.697Z,95307.41
2022-12-25T08:59:09.335Z,95316.19
2022-12-25T09:01:36.114Z,95316.53
2022-12-25T09:04:02.864Z,95301.47
2022-12-25T09:06:29.467Z,95297.22
2022-12-25T09:08:56.087Z,95294.75
2022-12-25T09:11:22.703Z,95288.75
2022-12-25T09:13:49.686Z,95292.47
2022-12-25T09:16:20.018Z,95300.09
2022-12-25T09:18:47.546Z,95303.53
2022-12-25T09:21:16.142Z,95305.88
2022-12-25T09:23:43.496Z,95305.75
2022-12-25T09:26:16.489Z,95314.47
2022-12-25T09:28:50.674Z,95315.06
2022-12-25T09:31:19.164Z,95324.28
2022-12-25T09:33:45.883Z,95326.16
2022-12-25T09:36:12.482Z,95321.41
2022-12-25T09:38:39.173Z,95324.81
2022-12-25T09:41:17.672Z,95323.28
2022-12-25T09:43:53.320Z,95313.53
2022-12-25T09:46:36.413Z,95306.69
2022-12-25T09:49:20.034Z,95302.81
2022-12-25T09:51:55.137Z,95299.34
2022-12-25T09:54:44.821Z,95294.56
2022-12-25T09:57:14.088Z,95297.41
2022-12-25T09:59:43.774Z,95308.38
2022-12-25T10:02:46.253Z,95310.94
2022-12-25T10:05:24.819Z,95294.97
2022-12-25T10:08:22.272Z,95291.66
2022-12-25T10:10:51.248Z,95294.22
2022-12-25T10:13:17.847Z,95301.63
2022-12-25T10:15:45.791Z,95294.41
2022-12-25T10:18:19.364Z,95295.84
2022-12-25T10:20:53.768Z,95301.34
2022-12-25T10:23:28.919Z,95301.09
2022-12-25T10:25:55.829Z,95291.63
2022-12-25T10:28:43.474Z,95302.72
2022-12-25T10:31:23.336Z,95290.59
2022-12-25T10:33:52.636Z,95285.66
2022-12-25T10:36:28.105Z,95276.88
2022-12-25T10:38:55.965Z,95279.16
2022-12-25T10:41:31.672Z,95282.31
2022-12-25T10:43:58.348Z,95273.00
2022-12-25T10:46:29.005Z,95278.41
2022-12-25T10:49:02.837Z,95270.78
2022-12-25T10:51:35.855Z,95271.13
2022-12-25T10:54:04.869Z,95266.78
2022-12-25T10:56:31.761Z,95263.38
2022-12-25T10:59:10.919Z,95253.59
2022-12-25T11:01:37.773Z,95255.19
2022-12-25T11:04:04.583Z,95257.31
2022-12-25T11:06:32.367Z,95245.03
2022-12-25T11:09:02.607Z,95262.28
2022-12-25T11:11:31.004Z,95265.75
2022-12-25T11:14:00.994Z,95250.56
2022-12-25T11:16:35.886Z,95221.06
2022-12-25T11:19:22.764Z,95205.94
2022-12-25T11:21:56.287Z,95224.94
2022-12-25T11:24:27.795Z,95250.97
2022-12-25T11:26:57.742Z,95259.38
2022-12-25T11:29:47.099Z,95258.97
2022-12-25T11:32:17.009Z,95260.94
2022-12-25T11:34:47.124Z,95267.66
2022-12-25T11:37:23.979Z,95259.19
2022-12-25T11:39:50.742Z,95247.00
2022-12-25T11:42:37.938Z,95228.06
2022-12-25T11:45:13.644Z,95241.63
2022-12-25T11:47:46.475Z,95243.97
2022-12-25T11:50:19.031Z,95251.00
2022-12-25T11:52:48.352Z,95245.09
2022-12-25T11:55:48.812Z,95246.03
2022-12-25T11:58:26.811Z,95262.75
2022-12-25T12:00:56.771Z,95259.97
2022-12-25T12:03:31.388Z,95238.63
2022-12-25T12:06:06.041Z,95242.53
2022-12-25T12:08:36.235Z,95248.63
2022-12-25T12:11:02.847Z,95249.44
2022-12-25T12:13:49.686Z,95253.13
2022-12-25T12:16:16.636Z,95245.53
2022-12-25T12:18:50.114Z,95245.94
2022-12-25T12:21:30.483Z,95251.47
2022-12-25T12:24:22.892Z,95249.63
2022-12-25T12:27:03.129Z,95260.66
2022-12-25T12:29:41.207Z,95258.81
2022-12-25T12:32:37.504Z,95256.03
2022-12-25T12:35:19.276Z,95241.84
2022-12-25T12:38:09.023Z,95236.28
2022-12-25T12:40:43.034Z,95241.75
2022-12-25T12:43:27.955Z,95236.28
2022-12-25T12:46:00.952Z,95229.81
2022-12-25T12:48:29.914Z,95236.25
2022-12-25T12:51:09.399Z,95240.13
2022-12-25T12:53:39.272Z,95252.34
2022-12-25T12:56:15.311Z,95232.28
2022-12-25T12:58:48.629Z,95237.72
2022-12-25T13:01:31.804Z,95242.47
2022-12-25T13:04:16.671Z,95239.31
2022-12-25T13:07:12.896Z,95247.63
2022-12-25T13:10:13.024Z,95244.53
2022-12-25T13:12:40.112Z,95242.44
2022-12-25T13:15:14.047Z,95245.66
2022-12-25T13:17:45.364Z,95245.91
2022-12-25T13:20:24.125Z,95256.53
2022-12-25T13:22:53.117Z,95243.50
2022-12-25T13:25:22.566Z,95248.75
2022-12-25T13:27:57.256Z,95237.38
2022-12-25T13:30:25.269Z,95250.31
2022-12-25T13:32:53.717Z,95255.41
2022-12-25T13:35:23.594Z,95253.06
2022-12-25T13:37:51.187Z,95245.44
2022-12-25T13:40:27.549Z,95244.50
2022-12-25T13:42:59.448Z,95242.28
2022-12-25T13:45:29.796Z,95242.47
2022-12-25T13:47:57.569Z,95245.81
2022-12-25T13:50:31.218Z,95247.34
2022-12-25T13:53:16.909Z,95239.94
2022-12-25T13:55:50.582Z,95238.88
2022-12-25T13:58:35.136Z,95234.97
2022-12-25T14:01:03.673Z,95236.59
2022-12-25T14:03:36.638Z,95241.66
2022-12-25T14:06:06.598Z,95234.63
2022-12-25T14:11:30.829Z,95238.75
2022-12-25T14:14:08.456Z,95236.59
2022-12-25T14:16:35.684Z,95245.22
2022-12-25T14:19:02.996Z,95251.31
2022-12-25T14:21:32.309Z,95243.66
2022-12-25T14:24:00.036Z,95244.25
2022-12-25T14:26:33.846Z,95232.53
2022-12-25T14:29:00.418Z,95251.69
2022-12-25T14:31:29.712Z,95251.78
2022-12-25T14:34:02.856Z,95255.47
2022-12-25T14:36:32.062Z,95257.53
2022-12-25T14:39:04.535Z,95256.72
2022-12-25T14:41:37.702Z,95244.97
2022-12-25T14:44:29.848Z,95237.72
2022-12-25T14:47:18.923Z,95240.63
2022-12-25T14:49:46.324Z,95239.69
2022-12-25T14:52:20.291Z,95243.50
2022-12-25T14:54:52.325Z,95242.47
2022-12-25T14:57:27.215Z,95239.47
2022-12-25T15:00:01.672Z,95238.66
2022-12-25T15:02:40.775Z,95230.38
2022-12-25T15:05:22.877Z,95225.75
2022-12-25T15:08:00.436Z,95228.38
2022-12-25T15:10:59.549Z,95221.88
2022-12-25T15:13:14.195Z,95235.78
2022-12-25T15:15:58.415Z,95228.03
2022-12-25T15:18:30.986Z,95231.56
2022-12-25T15:20:58.006Z,95225.22
2022-12-25T15:23:24.598Z,95230.06
2022-12-25T15:25:52.015Z,95238.41
2022-12-25T15:28:18.665Z,95242.41
2022-12-25T15:30:45.351Z,95243.97
2022-12-25T15:33:17.471Z,95236.19
2022-12-25T15:35:44.600Z,95239.88
2022-12-25T15:38:14.426Z,95221.25
2022-12-25T15:40:42.021Z,95222.22
2022-12-25T15:43:38.812Z,95230.19
2022-12-25T15:46:00.881Z,95225.41
2022-12-25T15:48:27.561Z,95231.09
2022-12-25T15:50:54.176Z,95229.72
2022-12-25T15:53:20.811Z,95227.81
2022-12-25T15:55:47.484Z,95223.16
2022-12-25T15:58:14.127Z,95225.38
2022-12-25T16:00:40.771Z,95226.53
2022-12-25T16:03:07.713Z,95230.84
2022-12-25T16:05:34.534Z,95227.22
2022-12-25T16:08:01.156Z,95238.34
2022-12-25T16:10:29.214Z,95228.56
2022-12-25T16:12:58.790Z,95239.50
2022-12-25T16:15:25.457Z,95230.44
2022-12-25T16:17:52.101Z,95234.31
2022-12-25T16:20:18.939Z,95229.75
2022-12-25T16:22:45.584Z,95235.16
2022-12-25T16:25:17.704Z,95230.66
2022-12-25T16:27:45.519Z,95240.78
2022-12-25T16:30:15.195Z,95237.66
2022-12-25T16:32:42.605Z,95249.84
2022-12-25T16:35:11.413Z,95248.72
2022-12-25T16:37:38.558Z,95248.97
2022-12-25T16:40:07.054Z,95250.06
2022-12-25T16:42:34.181Z,95246.16
2022-12-25T16:45:01.102Z,95240.16
2022-12-25T16:47:27.904Z,95251.16
2022-12-25T16:49:54.598Z,95254.59
2022-12-25T16:52:21.455Z,95251.66
2022-12-25T16:54:48.167Z,95266.81
2022-12-25T16:57:14.927Z,95273.19
2022-12-25T16:59:41.623Z,95290.41
2022-12-25T17:02:14.848Z,95286.59
2022-12-25T17:04:42.536Z,95289.78
2022-12-25T17:07:09.393Z,95288.69
2022-12-25T17:09:42.076Z,95301.34
2022-12-25T17:12:10.668Z,95293.75
2022-12-25T17:14:37.325Z,95305.91
2022-12-25T17:17:04.044Z,95304.94
2022-12-25T17:19:31.186Z,95301.84
2022-12-25T17:21:58.062Z,95307.34
2022-12-25T17:24:24.688Z,95299.66
2022-12-25T17:26:51.299Z,95297.72
2022-12-25T17:29:21.910Z,95293.59
2022-12-25T17:31:49.855Z,95283.06
2022-12-25T17:34:16.833Z,95289.38
2022-12-25T17:36:43.853Z,95285.09
2022-12-25T17:39:11.567Z,95285.16
2022-12-25T17:41:38.395Z,95291.69
2022-12-25T17:44:05.278Z,95278.63
2022-12-25T17:46:32.407Z,95281.72
2022-12-25T17:49:00.815Z,95273.34
2022-12-25T17:51:30.041Z,95278.75
2022-12-25T17:54:00.873Z,95281.16
2022-12-25T17:56:27.495Z,95289.81
2022-12-25T17:58:57.276Z,95280.03
2022-12-25T18:01:26.586Z,95279.53
2022-12-25T18:03:53.978Z,95283.34
2022-12-25T18:06:24.209Z,95288.13
2022-12-25T18:08:50.898Z,95287.09
2022-12-25T18:11:21.661Z,95287.97
2022-12-25T18:13:50.149Z,95288.72
2022-12-25T18:16:17.760Z,95290.72
2022-12-25T18:18:51.358Z,95280.03
2022-12-25T18:21:20.385Z,95268.88
2022-12-25T18:23:47.632Z,95278.00
2022-12-25T18:26:14.383Z,95265.16
2022-12-25T18:28:43.062Z,95270.69
2022-12-25T18:31:11.714Z,95279.28
2022-12-25T18:33:38.551Z,95274.66
2022-12-25T18:36:06.296Z,95283.75
2022-12-25T18:38:33.759Z,95278.53
2022-12-25T18:41:03.850Z,95280.06
2022-12-25T18:43:52.427Z,95292.59
2022-12-25T18:46:17.300Z,95291.13
2022-12-25T18:48:44.455Z,95300.09
2022-12-25T18:51:13.787Z,95296.56
2022-12-25T18:53:40.597Z,95289.84
2022-12-25T18:56:13.837Z,95291.78
2022-12-25T18:58:41.188Z,95282.69
2022-12-25T19:01:23.078Z,95281.69
2022-12-25T19:03:51.370Z,95276.91
2022-12-25T19:06:24.696Z,95284.31
2022-12-25T19:08:52.920Z,95290.69
2022-12-25T19:11:20.842Z,95290.75
2022-12-25T19:13:47.914Z,95301.91
2022-12-25T19:16:14.990Z,95293.13
2022-12-25T19:18:43.271Z,95294.34
2022-12-25T19:21:10.596Z,95290.16
2022-12-25T19:23:38.137Z,95296.41
2022-12-25T19:26:06.225Z,95310.44
2022-12-25T19:28:32.936Z,95309.75
2022-12-25T19:31:01.935Z,95312.59
2022-12-25T19:33:31.616Z,95313.41
2022-12-25T19:36:00.711Z,95310.88
2022-12-25T19:38:28.004Z,95315.13
2022-12-25T19:40:54.629Z,95307.56
2022-12-25T19:43:21.297Z,95304.03
2022-12-25T19:45:48.014Z,95308.59
2022-12-25T19:48:14.792Z,95315.31
2022-12-25T19:50:41.415Z,95316.59
2022-12-25T19:53:08.090Z,95321.97
2022-12-25T19:55:34.952Z,95327.84
2022-12-25T19:58:01.640Z,95332.56
2022-12-25T20:00:28.280Z,95331.13
2022-12-25T20:02:54.960Z,95329.91
2022-12-25T20:05:21.648Z,95330.97
2022-12-25T20:07:48.264Z,95332.78
2022-12-25T20:10:14.887Z,95335.81
2022-12-25T20:12:41.519Z,95335.34
2022-12-25T20:15:08.625Z,95345.81
2022-12-25T20:17:35.240Z,95351.56
2022-12-25T20:20:02.088Z,95356.53
2022-12-25T20:22:28.908Z,95361.41
2022-12-25T20:24:55.817Z,95373.16
2022-12-25T20:27:23.174Z,95377.59
2022-12-25T20:29:49.818Z,95375.97
2022-12-25T20:32:16.558Z,95371.28
2022-12-25T20:34:43.524Z,95376.84
2022-12-25T20:37:10.417Z,95387.00
2022-12-25T20:39:38.067Z,95386.50
2022-12-25T20:42:04.784Z,95400.69
2022-12-25T20:44:31.482Z,95404.78
2022-12-25T20:46:58.142Z,95398.56
2022-12-25T20:49:25.008Z,95405.75
2022-12-25T20:51:51.702Z,95406.63
2022-12-25T20:54:18.413Z,95413.97
2022-12-25T20:56:45.352Z,95414.81
2022-12-25T20:59:12.061Z,95419.28
2022-12-25T21:01:38.979Z,95426.25
2022-12-25T21:04:05.828Z,95426.34
2022-12-25T21:06:32.497Z,95424.00
2022-12-25T21:08:59.288Z,95432.09
2022-12-25T21:11:26.423Z,95429.16
2022-12-25T21:13:53.493Z,95430.56
2022-12-25T21:16:22.355Z,95430.31
2022-12-25T21:18:51.986Z,95443.53
2022-12-25T21:21:19.422Z,95437.66
2022-12-25T21:23:46.242Z,95438.94
2022-12-25T21:26:17.617Z,95449.56
2022-12-25T21:28:44.704Z,95455.31
2022-12-25T21:31:11.915Z,95449.31
2022-12-25T21:33:38.629Z,95452.50
2022-12-25T21:36:09.605Z,95453.31
2022-12-25T21:38:37.798Z,95464.72
2022-12-25T21:41:06.533Z,95458.06
2022-12-25T21:43:34.902Z,95462.97
2022-12-25T21:46:11.407Z,95468.25
2022-12-25T21:48:39.448Z,95467.47
2022-12-25T21:51:16.780Z,95475.81
2022-12-25T21:53:43.434Z,95476.09
2022-12-25T21:56:10.117Z,95465.06
2022-12-25T21:58:36.730Z,95483.00
2022-12-25T22:01:04.161Z,95485.88
2022-12-25T22:03:30.952Z,95476.97
2022-12-25T22:05:57.965Z,95482.34
2022-12-25T22:08:29.423Z,95480.50
2022-12-25T22:10:57.307Z,95490.28
2022-12-25T22:13:24.128Z,95491.09
2022-12-25T22:15:50.798Z,95493.56
2022-12-25T22:18:17.510Z,95493.47
2022-12-25T22:20:44.347Z,95493.63
2022-12-25T22:23:11.165Z,95488.28
2022-12-25T22:25:37.945Z,95500.88
2022-12-25T22:28:04.743Z,95503.22
2022-12-25T22:30:31.346Z,95501.06
2022-12-25T22:32:58.227Z,95511.63
2022-12-25T22:35:24.900Z,95520.78
2022-12-25T22:37:51.630Z,95519.31
2022-12-25T22:40:20.254Z,95525.75
2022-12-25T22:42:47.473Z,95534.16
2022-12-25T22:45:14.923Z,95535.66
2022-12-25T22:47:41.984Z,95537.31
2022-12-25T22:50:09.873Z,95530.72
2022-12-25T22:52:36.724Z,95527.50
2022-12-25T22:55:05.004Z,95540.09
2022-12-25T22:57:31.679Z,95540.56
2022-12-25T22:59:58.545Z,95541.00
2022-12-25T23:02:25.618Z,95539.59
2022-12-25T23:04:52.610Z,95539.91
2022-12-25T23:07:19.249Z,95541.16
2022-12-25T23:09:45.932Z,95538.13
2022-12-25T23:12:14.862Z,95556.00
2022-12-25T23:14:41.477Z,95550.53
2022-12-25T23:17:13.052Z,95555.66
2022-12-25T23:19:39.700Z,95555.84
2022-12-25T23:22:06.292Z,95558.47
2022-12-25T23:24:33.190Z,95550.34
2022-12-25T23:26:59.887Z,95558.84
2022-12-25T23:29:26.697Z,95559.22
2022-12-25T23:31:54.163Z,95564.34
2022-12-25T23:34:22.220Z,95558.81
2022-12-25T23:36:49.187Z,95557.88
2022-12-25T23:39:15.837Z,95572.47
2022-12-25T23:41:43.853Z,95581.59
2022-12-25T23:44:13.585Z,95577.94
2022-12-25T23:46:41.387Z,95573.06
2022-12-25T23:49:19.924Z,95580.00
2022-12-25T23:51:47.195Z,95576.72
2022-12-25T23:54:17.237Z,95569.56
2022-12-25T23:56:43.909Z,95567.94
2022-12-25T23:59:13.825Z,95581.22
